Time;durP1;ratioP1;P1;durP2;ratioP2;P2;SDS_P1;SDS_P2;PMS_P1;PMS_P2;Temp;Humidity;BMP_temperature;BMP_pressure;BME280_temperature;BME280_humidity;BME280_pressure;Samples;Min_cycle;Max_cycle;Signal;HPM_P1;HPM_P2
2022/09/24 00:01:37;;;;;;;2.50;2.30;;;20.40;63.10;;;;;;5022760;28;44172;-58
2022/09/24 00:04:07;;;;;;;2.25;2.05;;;20.40;63.00;;;;;;5024339;28;43573;-58
2022/09/24 00:06:43;;;;;;;2.63;2.42;;;20.40;63.00;;;;;;5024141;28;44163;-59
2022/09/24 00:09:12;;;;;;;2.60;2.40;;;20.40;63.10;;;;;;5024515;28;44296;-58
2022/09/24 00:11:40;;;;;;;3.40;2.50;;;20.40;63.00;;;;;;5023190;28;43531;-58
2022/09/24 00:14:08;;;;;;;2.95;2.65;;;20.40;63.00;;;;;;5024450;28;43443;-58
2022/09/24 00:16:38;;;;;;;3.15;2.70;;;20.40;63.10;;;;;;5008632;28;44076;-58
2022/09/24 00:19:05;;;;;;;3.25;2.95;;;20.40;63.10;;;;;;5023529;28;43978;-58
2022/09/24 00:21:34;;;;;;;2.80;2.60;;;20.40;63.10;;;;;;5024349;28;43427;-58
2022/09/24 00:27:01;;;;;;;2.95;2.67;;;20.30;63.10;;;;;;5024311;28;43883;-58
2022/09/24 00:29:32;;;;;;;2.67;2.47;;;20.40;63.10;;;;;;5020518;28;43964;-59
2022/09/24 00:32:01;;;;;;;3.28;2.97;;;20.40;63.10;;;;;;5023960;28;43394;-58
2022/09/24 00:34:28;;;;;;;2.50;2.30;;;20.30;63.20;;;;;;5023736;28;43602;-58
2022/09/24 00:36:56;;;;;;;2.85;2.65;;;20.30;63.10;;;;;;5055988;28;44011;-58
2022/09/24 00:39:23;;;;;;;2.45;2.33;;;20.30;63.20;;;;;;5021954;28;43514;-58
2022/09/24 00:41:50;;;;;;;2.80;2.60;;;20.30;63.20;;;;;;5019974;28;43491;-58
2022/09/24 00:44:53;;;;;;;2.70;2.50;;;20.30;63.20;;;;;;5023671;28;43720;-58
2022/09/24 00:47:53;;;;;;;2.53;2.33;;;20.30;63.20;;;;;;5033642;28;44721;-57
2022/09/24 00:50:33;;;;;;;2.58;2.38;;;20.30;63.20;;;;;;5010240;28;43458;-58
2022/09/24 00:53:17;;;;;;;3.15;2.85;;;20.30;63.20;;;;;;5023511;28;43443;-58
2022/09/24 00:55:49;;;;;;;2.80;2.50;;;20.30;63.30;;;;;;5023293;28;43537;-58
2022/09/24 00:58:17;;;;;;;2.55;2.35;;;20.30;63.30;;;;;;5023062;28;44436;-58
2022/09/24 01:00:45;;;;;;;2.58;2.38;;;20.30;63.30;;;;;;5021770;28;43471;-58
2022/09/24 01:03:18;;;;;;;2.22;2.13;;;20.30;63.30;;;;;;5023795;28;43399;-58
2022/09/24 01:05:46;;;;;;;2.80;2.60;;;20.20;63.20;;;;;;5003718;28;43486;-58
2022/09/24 01:08:15;;;;;;;2.20;2.00;;;20.20;63.20;;;;;;5011901;28;43922;-58
2022/09/24 01:11:05;;;;;;;2.40;2.30;;;20.20;63.30;;;;;;5022921;28;43473;-58
2022/09/24 01:14:04;;;;;;;2.80;2.60;;;20.30;63.30;;;;;;5021263;28;43493;-58
2022/09/24 01:16:57;;;;;;;2.78;2.58;;;20.20;63.30;;;;;;5021613;28;43399;-58
2022/09/24 01:19:45;;;;;;;2.75;2.55;;;20.20;63.40;;;;;;5022548;28;44909;-58
2022/09/24 01:22:50;;;;;;;2.53;2.30;;;20.20;63.40;;;;;;5022912;28;44433;-58
2022/09/24 01:25:58;;;;;;;2.80;2.60;;;20.20;63.40;;;;;;5023047;28;43593;-58
2022/09/24 01:29:04;;;;;;;3.20;2.95;;;20.20;63.40;;;;;;5021925;28;43436;-59
2022/09/24 01:31:45;;;;;;;2.60;2.40;;;20.20;63.50;;;;;;5009219;28;43634;-58
2022/09/24 01:34:18;;;;;;;2.55;2.35;;;20.20;63.50;;;;;;5023055;28;43531;-58
2022/09/24 01:36:48;;;;;;;2.80;2.60;;;20.10;63.50;;;;;;5021412;28;43533;-58
2022/09/24 01:39:17;;;;;;;2.77;2.57;;;20.10;63.40;;;;;;5022649;28;43510;-58
2022/09/24 01:41:46;;;;;;;2.63;2.42;;;20.20;63.50;;;;;;5018665;28;44436;-58
2022/09/24 01:44:14;;;;;;;2.50;2.28;;;20.20;63.60;;;;;;5022095;28;43470;-58
2022/09/24 01:46:42;;;;;;;2.40;2.25;;;20.20;63.50;;;;;;5022828;28;43411;-58
2022/09/24 01:49:10;;;;;;;2.67;2.47;;;20.20;63.50;;;;;;5022191;28;43481;-58
2022/09/24 01:51:47;;;;;;;2.33;2.13;;;20.10;63.40;;;;;;5021883;28;43785;-58
2022/09/24 01:54:39;;;;;;;2.70;2.50;;;20.10;63.40;;;;;;5020421;28;43473;-58
2022/09/24 01:57:30;;;;;;;2.83;2.63;;;20.20;63.60;;;;;;5024209;28;43428;-58
2022/09/24 02:00:08;;;;;;;2.85;2.65;;;20.20;63.60;;;;;;5022407;28;43511;-58
2022/09/24 02:02:59;;;;;;;2.40;2.20;;;20.20;63.50;;;;;;5022520;28;43933;-59
2022/09/24 02:05:38;;;;;;;2.50;2.30;;;20.10;63.50;;;;;;5021924;28;43450;-58
2022/09/24 02:08:11;;;;;;;2.67;2.47;;;20.20;63.60;;;;;;5022856;28;43399;-58
2022/09/24 02:11:07;;;;;;;2.55;2.35;;;20.10;63.60;;;;;;5006593;28;43407;-58
2022/09/24 02:13:38;;;;;;;2.08;1.90;;;20.10;63.60;;;;;;5019481;28;43556;-58
2022/09/24 02:16:13;;;;;;;2.20;2.10;;;20.10;63.60;;;;;;5022297;28;43480;-58
2022/09/24 02:18:45;;;;;;;2.17;2.00;;;20.10;63.60;;;;;;5021827;28;43549;-57
2022/09/24 02:21:17;;;;;;;2.47;2.28;;;20.10;63.60;;;;;;5022544;28;43476;-58
2022/09/24 02:23:50;;;;;;;2.30;2.10;;;20.10;63.70;;;;;;5022063;28;43802;-58
2022/09/24 02:26:17;;;;;;;2.45;2.25;;;20.10;63.50;;;;;;5021840;28;44008;-58
2022/09/24 02:28:45;;;;;;;2.35;2.20;;;20.10;63.60;;;;;;5022428;28;43427;-58
2022/09/24 02:31:20;;;;;;;2.40;2.20;;;20.10;63.60;;;;;;5022285;28;43542;-58
2022/09/24 02:36:37;;;;;;;1.80;1.70;;;20.10;63.60;;;;;;5021034;28;43609;-58
2022/09/24 02:39:05;;;;;;;2.38;2.28;;;20.10;63.60;;;;;;5021799;28;43435;-58
2022/09/24 02:41:34;;;;;;;1.95;1.85;;;20.10;63.60;;;;;;5021655;28;43427;-58
2022/09/24 02:44:01;;;;;;;1.75;1.65;;;20.10;63.60;;;;;;5004792;28;43942;-58
2022/09/24 02:46:29;;;;;;;2.10;1.90;;;20.10;63.60;;;;;;5021520;28;43399;-58
2022/09/24 02:48:56;;;;;;;2.10;2.00;;;20.10;63.70;;;;;;5025798;28;43401;-58
2022/09/24 02:51:24;;;;;;;1.92;1.83;;;20.10;63.70;;;;;;5025885;28;43439;-58
2022/09/24 02:53:51;;;;;;;2.05;1.85;;;20.10;63.70;;;;;;5025281;28;43800;-58
2022/09/24 02:56:19;;;;;;;1.90;1.80;;;20.10;63.70;;;;;;5025797;28;43341;-58
2022/09/24 02:58:46;;;;;;;1.73;1.63;;;20.10;63.70;;;;;;5025453;28;43402;-58
2022/09/24 03:01:14;;;;;;;1.90;1.80;;;20.00;63.60;;;;;;5024856;28;43556;-58
2022/09/24 03:03:42;;;;;;;1.90;1.80;;;20.00;63.70;;;;;;5025195;28;43984;-58
2022/09/24 03:06:11;;;;;;;1.60;1.50;;;20.00;63.70;;;;;;5025640;28;43371;-58
2022/09/24 03:08:41;;;;;;;1.50;1.40;;;20.00;63.70;;;;;;5023797;28;43460;-58
2022/09/24 03:11:09;;;;;;;1.70;1.60;;;20.00;63.60;;;;;;5025555;28;43452;-58
2022/09/24 03:13:43;;;;;;;1.73;1.63;;;20.00;63.70;;;;;;5010778;28;44714;-58
2022/09/24 03:16:11;;;;;;;1.50;1.40;;;20.00;63.60;;;;;;5023901;28;44026;-58
2022/09/24 03:18:39;;;;;;;1.38;1.30;;;20.00;63.70;;;;;;5021808;28;43482;-58
2022/09/24 03:21:11;;;;;;;1.20;1.20;;;20.00;63.70;;;;;;5024575;28;43455;-58
2022/09/24 03:23:40;;;;;;;1.75;1.40;;;20.00;63.70;;;;;;5024611;28;43811;-58
2022/09/24 03:26:08;;;;;;;1.50;1.40;;;20.00;64.30;;;;;;5025013;28;43426;-58
2022/09/24 03:28:35;;;;;;;1.30;1.20;;;20.00;63.70;;;;;;5022923;28;43395;-58
2022/09/24 03:31:04;;;;;;;1.33;1.13;;;20.00;63.70;;;;;;5025463;28;43649;-58
2022/09/24 03:33:32;;;;;;;1.38;1.27;;;20.00;63.80;;;;;;5024711;28;43856;-58
2022/09/24 03:36:04;;;;;;;1.25;1.15;;;20.00;63.80;;;;;;5024476;28;43421;-58
2022/09/24 03:38:33;;;;;;;1.38;1.27;;;20.00;63.80;;;;;;5024713;28;43490;-58
2022/09/24 03:41:02;;;;;;;1.45;1.35;;;20.00;63.80;;;;;;5023479;28;43489;-58
2022/09/24 03:43:30;;;;;;;1.33;1.23;;;20.00;63.70;;;;;;5013508;28;43868;-58
2022/09/24 03:45:57;;;;;;;1.30;1.20;;;20.00;63.80;;;;;;5024733;28;43506;-58
2022/09/24 03:48:26;;;;;;;1.23;1.13;;;20.00;63.80;;;;;;5024801;28;43390;-58
2022/09/24 03:50:53;;;;;;;1.30;1.20;;;20.00;63.80;;;;;;5024853;28;43447;-58
2022/09/24 03:53:21;;;;;;;1.88;1.23;;;20.00;63.80;;;;;;5019506;28;43786;-58
2022/09/24 03:55:54;;;;;;;1.40;1.30;;;20.00;63.80;;;;;;5017801;28;44078;-58
2022/09/24 03:58:23;;;;;;;1.08;1.08;;;20.00;63.80;;;;;;5024321;28;43477;-58
2022/09/24 04:00:52;;;;;;;1.10;1.10;;;20.00;63.80;;;;;;5023412;28;43436;-58
2022/09/24 04:03:24;;;;;;;1.13;1.13;;;20.00;63.80;;;;;;5056120;28;44052;-58
2022/09/24 04:05:51;;;;;;;1.10;1.00;;;20.00;63.80;;;;;;5023123;28;43473;-58
2022/09/24 04:08:20;;;;;;;1.38;1.00;;;20.00;63.80;;;;;;5024295;28;43453;-58
2022/09/24 04:10:49;;;;;;;1.10;0.93;;;20.00;63.80;;;;;;5024029;28;43979;-58
2022/09/24 04:13:18;;;;;;;1.15;1.05;;;20.00;63.80;;;;;;5023871;28;44040;-58
2022/09/24 04:15:46;;;;;;;0.90;0.90;;;19.90;63.70;;;;;;5023831;28;43438;-58
2022/09/24 04:18:14;;;;;;;1.10;1.10;;;19.90;63.80;;;;;;5024064;28;43420;-58
2022/09/24 04:20:42;;;;;;;1.20;1.10;;;19.90;63.80;;;;;;5023974;28;43423;-59
2022/09/24 04:23:10;;;;;;;1.20;1.10;;;19.90;63.80;;;;;;5020899;28;43798;-58
2022/09/24 04:25:39;;;;;;;1.30;1.20;;;19.90;63.80;;;;;;5017834;28;43499;-58
2022/09/24 04:28:08;;;;;;;1.05;1.00;;;19.90;63.80;;;;;;5021915;28;43442;-58
2022/09/24 04:30:37;;;;;;;0.90;0.90;;;19.90;63.80;;;;;;5023853;28;43552;-58
2022/09/24 04:33:05;;;;;;;1.38;1.10;;;19.90;63.80;;;;;;5023680;28;44676;-58
2022/09/24 04:35:37;;;;;;;1.98;1.30;;;19.90;63.70;;;;;;5023378;28;43487;-58
2022/09/24 04:38:04;;;;;;;1.08;0.98;;;19.90;63.70;;;;;;5023994;28;43412;-58
2022/09/24 04:40:32;;;;;;;1.20;1.10;;;19.90;63.70;;;;;;5023016;28;43451;-58
2022/09/24 04:43:01;;;;;;;1.05;0.95;;;19.90;63.70;;;;;;5019883;28;43987;-58
2022/09/24 04:45:29;;;;;;;1.02;0.93;;;19.90;63.80;;;;;;5022809;28;43476;-58
2022/09/24 04:47:57;;;;;;;1.42;1.10;;;19.90;63.80;;;;;;5024005;28;43348;-58
2022/09/24 04:50:32;;;;;;;1.00;0.90;;;19.90;63.80;;;;;;5023965;28;43567;-58
2022/09/24 04:53:00;;;;;;;1.40;1.00;;;19.90;63.80;;;;;;5023323;28;43791;-58
2022/09/24 04:55:27;;;;;;;1.23;1.10;;;19.90;63.80;;;;;;5023135;28;43603;-58
2022/09/24 04:57:58;;;;;;;1.10;1.00;;;19.90;63.80;;;;;;5024122;28;43457;-58
2022/09/24 05:00:25;;;;;;;0.80;0.80;;;19.90;63.80;;;;;;5022603;28;43578;-58
2022/09/24 05:02:58;;;;;;;0.80;0.80;;;19.90;63.80;;;;;;5021564;28;43794;-58
2022/09/24 05:05:27;;;;;;;1.92;1.10;;;19.90;63.80;;;;;;5021652;28;44032;-58
2022/09/24 05:07:57;;;;;;;1.27;1.17;;;19.90;63.80;;;;;;5022984;28;43423;-58
2022/09/24 05:10:26;;;;;;;0.95;0.88;;;19.90;63.80;;;;;;5022839;28;43455;-58
2022/09/24 05:12:54;;;;;;;1.23;1.05;;;19.90;63.80;;;;;;5021724;28;44035;-58
2022/09/24 05:15:22;;;;;;;1.35;1.15;;;19.90;63.80;;;;;;5022584;28;43518;-58
2022/09/24 05:17:49;;;;;;;1.52;0.93;;;19.90;63.80;;;;;;5023102;28;43503;-58
2022/09/24 05:20:17;;;;;;;0.93;0.93;;;19.90;63.80;;;;;;5022309;28;43531;-58
2022/09/24 05:22:46;;;;;;;0.90;0.90;;;19.90;63.80;;;;;;5023055;28;44760;-57
2022/09/24 05:25:15;;;;;;;1.00;1.00;;;19.90;63.80;;;;;;5023176;28;43478;-58
2022/09/24 05:27:47;;;;;;;1.58;1.15;;;19.90;63.80;;;;;;5021404;28;43498;-58
2022/09/24 05:30:16;;;;;;;0.88;0.88;;;19.90;63.80;;;;;;5023289;28;43444;-58
2022/09/24 05:32:44;;;;;;;0.93;0.90;;;19.90;63.80;;;;;;5022795;28;44283;-58
2022/09/24 05:35:12;;;;;;;0.80;0.80;;;19.80;63.80;;;;;;5020381;28;43518;-58
2022/09/24 05:37:40;;;;;;;1.42;1.00;;;19.90;63.90;;;;;;5023097;28;43671;-58
2022/09/24 05:43:00;;;;;;;1.83;0.90;;;19.80;63.80;;;;;;5019670;28;44254;-58
2022/09/24 05:45:29;;;;;;;1.95;1.00;;;19.90;63.90;;;;;;5022775;28;43463;-58
2022/09/24 05:47:58;;;;;;;1.10;0.90;;;19.80;63.90;;;;;;5022998;28;43335;-58
2022/09/24 05:50:26;;;;;;;1.00;0.80;;;19.80;63.90;;;;;;5022262;28;43569;-58
2022/09/24 05:52:54;;;;;;;1.05;0.90;;;19.80;63.90;;;;;;5019923;28;43817;-58
2022/09/24 05:55:21;;;;;;;0.82;0.82;;;19.80;63.80;;;;;;5021098;28;43482;-58
2022/09/24 05:57:49;;;;;;;0.75;0.75;;;19.80;63.80;;;;;;5054602;28;43449;-58
2022/09/24 06:00:16;;;;;;;0.80;0.80;;;19.80;64.30;;;;;;5021705;28;43487;-58
2022/09/24 06:02:44;;;;;;;1.85;0.93;;;19.80;63.90;;;;;;5020655;28;43885;-58
2022/09/24 06:05:13;;;;;;;1.85;0.90;;;19.80;63.90;;;;;;5022367;28;43961;-58
2022/09/24 06:07:40;;;;;;;0.95;0.85;;;19.80;63.90;;;;;;5022717;28;43512;-58
2022/09/24 06:10:08;;;;;;;1.00;0.90;;;19.80;63.80;;;;;;5023341;28;43466;-58
2022/09/24 06:12:35;;;;;;;0.77;0.77;;;19.80;63.90;;;;;;5021955;28;43968;-58
2022/09/24 06:15:03;;;;;;;0.80;0.80;;;19.80;63.90;;;;;;5022471;28;43414;-58
2022/09/24 06:17:31;;;;;;;1.10;0.90;;;19.80;63.90;;;;;;5020505;28;43513;-58
2022/09/24 06:19:59;;;;;;;0.93;0.80;;;19.80;63.90;;;;;;5022347;28;43529;-58
2022/09/24 06:22:27;;;;;;;0.93;0.70;;;19.80;63.90;;;;;;5021747;28;45029;-58
2022/09/24 06:24:55;;;;;;;0.77;0.77;;;19.80;63.90;;;;;;5053949;28;44032;-58
2022/09/24 06:27:23;;;;;;;1.02;0.93;;;19.80;63.90;;;;;;5022767;28;43435;-58
2022/09/24 06:29:50;;;;;;;1.02;0.88;;;19.80;63.90;;;;;;5022113;28;43419;-58
2022/09/24 06:32:18;;;;;;;1.95;0.85;;;19.80;63.90;;;;;;5021358;28;44316;-58
2022/09/24 06:34:46;;;;;;;1.30;0.90;;;19.80;63.90;;;;;;5021861;28;43967;-58
2022/09/24 06:37:13;;;;;;;1.70;1.02;;;19.80;63.90;;;;;;5020857;28;43527;-58
2022/09/24 06:39:41;;;;;;;1.40;0.80;;;19.80;63.90;;;;;;5053738;28;43601;-58
2022/09/24 06:42:10;;;;;;;1.10;1.00;;;19.80;63.90;;;;;;5022175;28;44054;-58
2022/09/24 06:44:38;;;;;;;1.58;0.80;;;19.80;63.90;;;;;;5020050;28;43419;-58
2022/09/24 06:47:06;;;;;;;1.70;1.08;;;19.80;63.90;;;;;;5022005;28;43482;-57
2022/09/24 06:49:33;;;;;;;1.40;1.05;;;19.80;64.00;;;;;;5021704;28;43616;-58
2022/09/24 06:52:01;;;;;;;0.98;0.80;;;19.80;63.90;;;;;;5021796;28;44043;-58
2022/09/24 06:54:29;;;;;;;0.85;0.80;;;19.80;64.10;;;;;;5016170;28;43966;-58
2022/09/24 06:56:56;;;;;;;1.63;0.70;;;19.80;64.00;;;;;;5020319;28;43505;-58
2022/09/24 06:59:24;;;;;;;2.95;0.90;;;19.80;63.90;;;;;;5018428;28;43374;-58
2022/09/24 07:01:52;;;;;;;0.98;0.80;;;19.80;64.10;;;;;;5021442;28;44306;-58
2022/09/24 07:04:19;;;;;;;1.10;0.80;;;19.80;64.00;;;;;;5021955;28;43477;-58
2022/09/24 07:09:35;;;;;;;1.58;1.10;;;19.80;64.10;;;;;;5021639;28;43574;-58
2022/09/24 07:12:04;;;;;;;1.73;0.98;;;19.80;64.10;;;;;;5042957;28;44665;-59
2022/09/24 07:14:31;;;;;;;1.63;1.02;;;19.80;64.10;;;;;;5021246;28;43449;-58
2022/09/24 07:16:59;;;;;;;2.35;0.75;;;19.80;64.10;;;;;;5022150;28;43454;-58
2022/09/24 07:19:27;;;;;;;1.30;0.80;;;19.80;64.20;;;;;;5019291;28;44087;-57
2022/09/24 07:21:54;;;;;;;1.77;0.80;;;19.80;64.10;;;;;;5021405;28;44140;-59
2022/09/24 07:24:22;;;;;;;1.67;0.90;;;19.80;64.10;;;;;;5021669;28;44066;-58
2022/09/24 07:26:49;;;;;;;1.30;1.10;;;19.80;64.10;;;;;;5021052;28;43603;-58
2022/09/24 07:29:17;;;;;;;1.70;0.90;;;19.80;64.10;;;;;;5021356;28;43531;-58
2022/09/24 07:31:45;;;;;;;0.93;0.90;;;19.80;64.10;;;;;;5021154;28;44961;-57
2022/09/24 07:34:13;;;;;;;3.03;0.98;;;19.80;64.10;;;;;;5021605;28;43422;-58
2022/09/24 07:36:41;;;;;;;1.63;0.85;;;19.80;64.20;;;;;;5024686;28;43489;-58
2022/09/24 07:39:09;;;;;;;1.25;0.90;;;19.80;64.10;;;;;;5025223;28;43428;-58
2022/09/24 07:41:38;;;;;;;2.10;1.08;;;19.80;64.20;;;;;;5024035;28;44902;-58
2022/09/24 07:44:08;;;;;;;2.30;0.98;;;19.80;64.00;;;;;;5025452;28;43465;-58
2022/09/24 07:46:36;;;;;;;1.13;0.70;;;19.80;64.10;;;;;;5024680;28;43431;-58
2022/09/24 07:49:04;;;;;;;1.00;0.80;;;19.80;64.80;;;;;;5021959;28;43483;-58
2022/09/24 07:51:32;;;;;;;1.45;1.23;;;19.80;64.20;;;;;;5024295;28;44044;-58
2022/09/24 07:54:00;;;;;;;0.77;0.77;;;19.80;64.10;;;;;;5025091;28;43487;-58
2022/09/24 07:56:29;;;;;;;1.17;0.70;;;19.80;64.20;;;;;;5023840;28;43451;-58
2022/09/24 07:58:57;;;;;;;1.38;0.68;;;19.80;64.30;;;;;;5025105;28;43509;-58
2022/09/24 08:01:25;;;;;;;1.98;1.00;;;19.80;64.30;;;;;;5023745;28;44150;-58
2022/09/24 08:03:53;;;;;;;0.85;0.80;;;19.80;64.30;;;;;;5024410;28;43430;-58
2022/09/24 08:06:22;;;;;;;1.45;0.88;;;19.80;64.30;;;;;;5024646;28;43427;-58
2022/09/24 08:08:51;;;;;;;1.80;0.70;;;19.70;64.20;;;;;;5023404;28;43521;-58
2022/09/24 08:11:20;;;;;;;1.52;0.90;;;19.80;64.30;;;;;;5023670;28;43598;-59
2022/09/24 08:13:47;;;;;;;0.80;0.65;;;19.70;64.30;;;;;;5024457;28;43458;-58
2022/09/24 08:16:16;;;;;;;5.88;1.77;;;19.70;64.30;;;;;;5023463;28;43383;-58
2022/09/24 08:18:44;;;;;;;3.75;1.90;;;19.70;64.40;;;;;;5024415;28;43386;-58
2022/09/24 08:21:14;;;;;;;3.15;2.33;;;19.80;64.60;;;;;;5023874;28;43871;-58
2022/09/24 08:23:43;;;;;;;5.13;2.50;;;19.70;64.60;;;;;;5023534;28;43438;-59
2022/09/24 08:26:12;;;;;;;3.45;2.53;;;19.80;64.60;;;;;;5023126;28;43822;-58
2022/09/24 08:28:40;;;;;;;5.45;2.40;;;19.80;64.60;;;;;;5024176;28;43530;-58
2022/09/24 08:31:11;;;;;;;4.30;2.60;;;19.80;64.40;;;;;;5023424;28;43812;-58
2022/09/24 08:33:39;;;;;;;4.10;2.08;;;19.80;64.40;;;;;;5023680;28;44160;-58
2022/09/24 08:36:08;;;;;;;2.15;1.80;;;19.90;64.40;;;;;;5014419;28;43408;-59
2022/09/24 08:38:36;;;;;;;4.45;2.13;;;20.00;64.50;;;;;;5023276;28;43455;-58
2022/09/24 08:41:20;;;;;;;2.17;1.77;;;20.00;64.40;;;;;;5023553;28;44975;-59
2022/09/24 08:44:01;;;;;;;2.08;1.70;;;20.10;64.30;;;;;;5023834;28;43467;-59
2022/09/24 08:49:38;;;;;;;2.55;1.80;;;20.20;64.40;;;;;;5024146;28;43610;-59
2022/09/24 08:52:30;;;;;;;4.85;2.05;;;20.40;64.20;;;;;;5012559;28;44082;-58
2022/09/24 08:55:03;;;;;;;2.10;1.60;;;20.40;63.80;;;;;;5023615;28;44002;-60
2022/09/24 08:57:45;;;;;;;3.60;1.88;;;20.50;63.80;;;;;;5023336;28;43478;-58
2022/09/24 09:00:14;;;;;;;3.25;1.73;;;20.60;64.00;;;;;;5023339;28;43585;-59
2022/09/24 09:02:59;;;;;;;2.22;1.67;;;20.60;63.60;;;;;;5023693;28;44063;-60
2022/09/24 09:05:57;;;;;;;4.30;1.63;;;20.70;63.50;;;;;;5022630;28;43443;-60
2022/09/24 09:08:57;;;;;;;2.45;1.50;;;20.90;63.50;;;;;;5027889;28;43477;-60
2022/09/24 09:11:36;;;;;;;2.33;1.77;;;21.00;63.40;;;;;;5023156;28;43409;-61
2022/09/24 09:14:12;;;;;;;1.73;1.40;;;21.10;63.20;;;;;;5023229;28;44978;-60
2022/09/24 09:16:57;;;;;;;3.00;1.83;;;21.10;63.00;;;;;;5021639;28;43440;-60
2022/09/24 09:19:33;;;;;;;2.55;1.42;;;21.20;62.80;;;;;;5022645;28;43429;-60
2022/09/24 09:22:13;;;;;;;1.60;1.50;;;21.30;62.60;;;;;;5023789;28;43642;-60
2022/09/24 09:24:51;;;;;;;1.88;1.30;;;21.40;62.40;;;;;;5022730;28;44969;-62
2022/09/24 09:27:19;;;;;;;2.35;1.20;;;21.40;62.40;;;;;;5017488;28;43942;-62
2022/09/24 09:29:55;;;;;;;2.92;1.50;;;21.50;62.30;;;;;;5023426;28;43382;-61
2022/09/24 09:32:29;;;;;;;1.35;1.23;;;21.50;62.50;;;;;;5020532;28;43464;-59
2022/09/24 09:35:34;;;;;;;2.47;1.17;;;21.60;62.20;;;;;;5022677;28;43680;-60
2022/09/24 09:38:23;;;;;;;4.15;1.42;;;21.60;62.00;;;;;;5018162;28;43545;-59
2022/09/24 09:41:32;;;;;;;2.20;1.25;;;21.70;62.00;;;;;;5022458;28;43413;-59
2022/09/24 09:44:14;;;;;;;1.80;1.00;;;21.80;61.70;;;;;;5020531;28;43560;-60
2022/09/24 09:46:52;;;;;;;1.25;1.15;;;21.90;61.60;;;;;;5022686;28;44917;-60
2022/09/24 09:49:22;;;;;;;1.42;1.23;;;22.00;61.40;;;;;;5022346;28;43495;-60
2022/09/24 09:51:54;;;;;;;1.10;1.00;;;22.00;61.20;;;;;;5022984;28;43486;-60
2022/09/24 09:54:34;;;;;;;2.75;1.13;;;22.10;61.10;;;;;;5021313;28;43557;-59
2022/09/24 09:57:02;;;;;;;2.75;1.25;;;22.10;61.00;;;;;;5022336;28;44165;-60
2022/09/24 09:59:33;;;;;;;2.08;1.20;;;22.20;61.00;;;;;;5022424;28;43429;-60
2022/09/24 10:02:00;;;;;;;3.10;1.15;;;22.20;60.90;;;;;;5022078;28;43476;-60
2022/09/24 10:04:34;;;;;;;2.35;1.15;;;22.20;60.80;;;;;;5021145;28;43502;-60
2022/09/24 10:07:05;;;;;;;2.65;1.50;;;22.20;60.90;;;;;;5021998;28;44441;-60
2022/09/24 10:09:33;;;;;;;3.50;1.67;;;22.20;60.90;;;;;;5022102;28;43432;-60
2022/09/24 10:12:23;;;;;;;6.18;2.10;;;22.10;60.90;;;;;;5023702;28;43455;-59
2022/09/24 10:15:00;;;;;;;3.08;2.13;;;22.10;61.00;;;;;;5021898;28;43490;-60
2022/09/24 10:17:34;;;;;;;2.30;2.10;;;22.10;61.30;;;;;;5017802;28;44810;-60
2022/09/24 10:20:20;;;;;;;4.20;2.53;;;22.00;61.20;;;;;;5022569;28;43538;-60
2022/09/24 10:22:57;;;;;;;6.22;2.80;;;22.10;61.30;;;;;;5020682;28;43458;-60
2022/09/24 10:25:27;;;;;;;6.00;2.90;;;22.10;61.30;;;;;;5022323;28;43537;-60
2022/09/24 10:30:55;;;;;;;6.22;3.33;;;22.00;61.30;;;;;;5020566;28;43486;-60
2022/09/24 10:33:23;;;;;;;6.47;3.70;;;22.00;61.30;;;;;;5004915;28;43408;-61
2022/09/24 10:36:25;;;;;;;7.60;4.25;;;22.00;61.40;;;;;;5022498;28;43531;-60
2022/09/24 10:39:14;;;;;;;8.70;4.50;;;22.00;61.50;;;;;;5020681;28;44037;-60
2022/09/24 10:41:50;;;;;;;9.57;5.18;;;22.00;61.50;;;;;;5021710;28;43462;-60
2022/09/24 10:44:20;;;;;;;8.15;4.95;;;21.90;61.60;;;;;;5022123;28;43502;-60
2022/09/24 10:47:07;;;;;;;9.25;5.18;;;21.90;61.60;;;;;;5002207;28;43586;-60
2022/09/24 10:49:46;;;;;;;8.38;5.75;;;21.90;61.70;;;;;;5020263;28;43812;-60
2022/09/24 10:52:39;;;;;;;10.27;6.13;;;21.90;61.80;;;;;;5020481;28;43523;-60
2022/09/24 10:55:26;;;;;;;11.27;5.95;;;21.80;61.80;;;;;;5021476;28;43486;-60
2022/09/24 10:58:24;;;;;;;10.10;6.13;;;21.80;61.90;;;;;;5022022;28;43570;-59
2022/09/24 11:01:36;;;;;;;10.10;6.35;;;21.80;61.90;;;;;;5021755;28;44075;-60
2022/09/24 11:04:12;;;;;;;9.18;6.53;;;21.70;61.90;;;;;;4980207;28;43536;-60
2022/09/24 11:07:04;;;;;;;11.20;7.05;;;21.70;62.00;;;;;;4973189;28;43431;-59
2022/09/24 11:10:00;;;;;;;11.13;6.38;;;21.70;62.10;;;;;;5003854;28;43469;-59
2022/09/24 11:12:34;;;;;;;12.32;7.30;;;21.70;62.20;;;;;;5019050;28;44017;-59
2022/09/24 11:15:20;;;;;;;11.18;7.25;;;21.60;62.20;;;;;;5024689;28;43507;-59
2022/09/24 11:18:25;;;;;;;13.10;7.32;;;21.60;62.30;;;;;;5024212;28;43509;-60
2022/09/24 11:21:03;;;;;;;12.73;7.07;;;21.60;62.20;;;;;;5022229;28;43639;-59
2022/09/24 11:23:37;;;;;;;13.15;7.72;;;21.60;62.30;;;;;;5023009;28;44927;-60
2022/09/24 11:26:44;;;;;;;9.93;6.85;;;21.60;62.40;;;;;;5023361;28;43470;-59
2022/09/24 11:29:50;;;;;;;11.00;6.40;;;21.60;62.40;;;;;;5023913;28;43485;-59
2022/09/24 11:32:30;;;;;;;12.70;7.20;;;21.60;62.50;;;;;;5026481;28;43533;-59
2022/09/24 11:35:35;;;;;;;10.00;6.78;;;21.50;62.40;;;;;;5023776;28;44976;-59
2022/09/24 11:38:18;;;;;;;9.30;6.22;;;21.60;62.60;;;;;;5024659;28;43547;-59
2022/09/24 11:41:09;;;;;;;9.43;6.50;;;21.50;62.50;;;;;;5022792;28;43462;-59
2022/09/24 11:43:53;;;;;;;10.45;6.82;;;21.50;62.50;;;;;;5021973;28;43569;-60
2022/09/24 11:46:43;;;;;;;10.77;6.75;;;21.50;62.70;;;;;;5024229;28;44033;-59
2022/09/24 11:49:17;;;;;;;13.80;7.35;;;21.50;62.70;;;;;;5046935;28;44166;-59
2022/09/24 11:52:23;;;;;;;9.57;6.30;;;21.40;62.60;;;;;;5024123;28;43461;-59
2022/09/24 11:55:44;;;;;;;10.82;6.88;;;21.40;62.60;;;;;;5019948;28;43607;-59
2022/09/24 11:58:17;;;;;;;10.18;6.70;;;21.40;62.70;;;;;;4989434;28;43847;-59
2022/09/24 12:01:05;;;;;;;10.65;6.68;;;21.40;62.80;;;;;;5011425;28;43497;-59
2022/09/24 12:04:09;;;;;;;9.90;6.30;;;21.40;62.80;;;;;;5024208;28;43426;-60
2022/09/24 12:06:44;;;;;;;8.88;6.07;;;21.30;62.90;;;;;;5005239;28;43629;-59
2022/09/24 12:09:31;;;;;;;9.73;6.32;;;21.30;63.00;;;;;;5019123;28;44766;-59
2022/09/24 12:12:15;;;;;;;10.27;6.78;;;21.30;63.10;;;;;;5024941;28;43680;-59
2022/09/24 12:14:53;;;;;;;9.13;6.40;;;21.30;63.20;;;;;;5011659;28;43416;-59
2022/09/24 12:17:33;;;;;;;10.60;6.38;;;21.20;63.20;;;;;;5022814;28;43603;-59
2022/09/24 12:20:19;;;;;;;10.80;6.35;;;21.30;63.80;;;;;;5023889;28;45066;-59
2022/09/24 12:22:50;;;;;;;10.10;6.03;;;21.20;63.40;;;;;;5023339;28;43941;-58
2022/09/24 12:25:18;;;;;;;10.18;6.45;;;21.20;63.20;;;;;;5022387;28;43461;-59
2022/09/24 12:27:46;;;;;;;8.75;5.50;;;21.20;63.30;;;;;;5024083;28;43656;-58
2022/09/24 12:34:10;;;;;;;8.10;5.75;;;21.20;63.20;;;;;;5023524;28;43442;-59
2022/09/24 12:36:59;;;;;;;9.20;6.10;;;21.20;63.20;;;;;;5026188;28;43433;-59
2022/09/24 12:39:48;;;;;;;7.85;5.57;;;21.20;63.30;;;;;;5020901;28;43724;-58
2022/09/24 12:42:20;;;;;;;9.20;5.57;;;21.20;63.20;;;;;;5023329;28;44916;-59
2022/09/24 12:44:57;;;;;;;8.32;5.68;;;21.10;63.20;;;;;;5018884;28;43591;-59
2022/09/24 12:47:32;;;;;;;6.78;5.18;;;21.10;63.10;;;;;;5023127;28;43438;-59
2022/09/24 12:50:03;;;;;;;8.15;5.50;;;21.10;63.00;;;;;;5054597;28;43579;-59
2022/09/24 12:52:41;;;;;;;7.72;5.38;;;21.10;63.00;;;;;;5022940;28;44926;-58
2022/09/24 12:55:35;;;;;;;6.88;5.18;;;21.10;63.20;;;;;;5021796;28;43565;-58
2022/09/24 12:58:05;;;;;;;8.00;5.15;;;21.10;63.00;;;;;;5018980;28;44075;-58
2022/09/24 13:00:46;;;;;;;8.02;5.55;;;21.10;63.10;;;;;;5021995;28;43558;-58
2022/09/24 13:03:37;;;;;;;7.72;5.38;;;21.10;63.70;;;;;;5022949;28;44127;-59
2022/09/24 13:06:41;;;;;;;7.50;5.20;;;21.10;63.10;;;;;;5055047;28;43952;-58
2022/09/24 13:09:40;;;;;;;8.82;5.07;;;21.10;63.10;;;;;;5022339;28;43419;-59
2022/09/24 13:12:19;;;;;;;8.13;4.90;;;21.10;63.10;;;;;;5027368;28;43546;-59
2022/09/24 13:15:03;;;;;;;7.80;5.20;;;21.10;63.20;;;;;;5017884;28;44160;-59
2022/09/24 13:17:33;;;;;;;8.23;4.97;;;21.10;63.30;;;;;;5019636;28;43438;-59
2022/09/24 13:20:15;;;;;;;7.93;4.90;;;21.00;63.30;;;;;;5021814;28;43919;-59
2022/09/24 13:22:59;;;;;;;8.93;4.63;;;21.00;63.30;;;;;;5022077;28;43518;-58
2022/09/24 13:25:26;;;;;;;9.30;5.63;;;21.00;63.40;;;;;;5016301;28;44982;-59
2022/09/24 13:28:00;;;;;;;6.85;4.88;;;21.00;63.50;;;;;;5022871;28;43859;-59
2022/09/24 13:30:28;;;;;;;5.85;4.47;;;21.00;63.40;;;;;;5022170;28;43502;-59
2022/09/24 13:33:00;;;;;;;7.60;4.43;;;21.00;63.40;;;;;;5021316;28;43549;-58
2022/09/24 13:35:40;;;;;;;6.28;4.50;;;21.00;63.40;;;;;;5020195;28;43943;-59
2022/09/24 13:38:24;;;;;;;6.07;4.32;;;21.00;63.40;;;;;;5022726;28;43521;-59
2022/09/24 13:41:10;;;;;;;6.75;4.53;;;21.00;63.50;;;;;;5020091;28;43403;-59
2022/09/24 13:43:47;;;;;;;6.90;4.45;;;21.00;63.60;;;;;;5019903;28;43472;-59
2022/09/24 13:46:17;;;;;;;7.40;4.30;;;20.90;63.50;;;;;;5020903;28;43734;-59